Buffalo, Kentucky
Current Conditions -  °F | °C
As of 5:58 AM on Friday 31 Oct 2014 (Local Time) from KFTK Reporting Station
Drizzle Drizzle  
Wind Chill: 45°   Ceiling: 3400
Heat Index: 45°   Visibility: 10mi
Dew Point: 43°   Wind: 2mph
Humidity: 92%   Direction: 290°WNW
Pressure: 29.98"   Gusts: NA
Location:  37.51°N, 85.7°W
Report Text: KFTK 310958Z AUTO 29002KT 10SM -DZ OVC034 07/06 A2998 RMK AO2 RAE0930B0950E0951DZB0930 SLP156 P0001 T00740061
Loading
Personal Weather Stations






























Interactive Weather Map
Tropical Storm Tracking
New forecast layout! Learn more

10-Day Weather Forecast

Advertisements
Track Severe Weather on mobile